sensor_id;sensor_type;location;lat;lon;timestamp;temperature;humidity
44863;DHT22;30597;49.628;10.850;2023-07-13T00:00:46;29.60;58.80
44863;DHT22;30597;49.628;10.850;2023-07-13T00:03:12;29.70;58.60
44863;DHT22;30597;49.628;10.850;2023-07-13T00:05:39;29.70;58.90
44863;DHT22;30597;49.628;10.850;2023-07-13T00:08:05;29.60;59.00
44863;DHT22;30597;49.628;10.850;2023-07-13T00:10:30;29.70;58.70
44863;DHT22;30597;49.628;10.850;2023-07-13T00:12:57;29.70;58.90
44863;DHT22;30597;49.628;10.850;2023-07-13T00:15:25;29.70;58.70
44863;DHT22;30597;49.628;10.850;2023-07-13T00:17:52;29.50;58.60
44863;DHT22;30597;49.628;10.850;2023-07-13T00:20:19;29.60;58.70
44863;DHT22;30597;49.628;10.850;2023-07-13T00:22:47;29.60;58.50
44863;DHT22;30597;49.628;10.850;2023-07-13T00:25:13;29.60;58.70
44863;DHT22;30597;49.628;10.850;2023-07-13T00:27:38;29.50;58.40
44863;DHT22;30597;49.628;10.850;2023-07-13T00:30:05;29.50;58.30
44863;DHT22;30597;49.628;10.850;2023-07-13T00:32:34;29.50;58.40
44863;DHT22;30597;49.628;10.850;2023-07-13T00:35:01;29.50;58.40
44863;DHT22;30597;49.628;10.850;2023-07-13T00:37:26;29.50;58.40
44863;DHT22;30597;49.628;10.850;2023-07-13T00:39:52;29.50;58.20
44863;DHT22;30597;49.628;10.850;2023-07-13T00:42:18;29.50;57.60
44863;DHT22;30597;49.628;10.850;2023-07-13T00:45:07;29.60;57.20
44863;DHT22;30597;49.628;10.850;2023-07-13T00:47:33;29.40;56.80
44863;DHT22;30597;49.628;10.850;2023-07-13T00:49:59;29.40;56.50
44863;DHT22;30597;49.628;10.850;2023-07-13T00:52:28;29.40;56.30
44863;DHT22;30597;49.628;10.850;2023-07-13T00:54:54;29.40;56.10
44863;DHT22;30597;49.628;10.850;2023-07-13T00:57:21;29.40;56.10
44863;DHT22;30597;49.628;10.850;2023-07-13T00:59:50;29.40;55.70
44863;DHT22;30597;49.628;10.850;2023-07-13T01:02:17;29.30;55.50
44863;DHT22;30597;49.628;10.850;2023-07-13T01:04:43;29.30;55.10
44863;DHT22;30597;49.628;10.850;2023-07-13T01:07:10;29.30;55.00
44863;DHT22;30597;49.628;10.850;2023-07-13T01:09:36;29.30;54.70
44863;DHT22;30597;49.628;10.850;2023-07-13T01:12:02;29.30;54.70
44863;DHT22;30597;49.628;10.850;2023-07-13T01:14:28;29.20;54.30
44863;DHT22;30597;49.628;10.850;2023-07-13T01:16:54;29.30;54.80
44863;DHT22;30597;49.628;10.850;2023-07-13T01:19:36;29.30;54.40
44863;DHT22;30597;49.628;10.850;2023-07-13T01:22:08;29.30;54.00
44863;DHT22;30597;49.628;10.850;2023-07-13T01:24:36;29.20;53.90
44863;DHT22;30597;49.628;10.850;2023-07-13T01:27:02;29.20;53.90
44863;DHT22;30597;49.628;10.850;2023-07-13T01:29:30;29.20;53.60
44863;DHT22;30597;49.628;10.850;2023-07-13T01:31:56;29.20;53.40
44863;DHT22;30597;49.628;10.850;2023-07-13T01:34:21;29.20;53.30
44863;DHT22;30597;49.628;10.850;2023-07-13T01:36:47;29.20;53.10
44863;DHT22;30597;49.628;10.850;2023-07-13T01:39:12;29.10;53.00
44863;DHT22;30597;49.628;10.850;2023-07-13T01:41:38;29.20;52.90
44863;DHT22;30597;49.628;10.850;2023-07-13T01:44:03;29.20;52.80
44863;DHT22;30597;49.628;10.850;2023-07-13T01:46:29;29.10;52.50
44863;DHT22;30597;49.628;10.850;2023-07-13T01:48:54;29.10;52.40
44863;DHT22;30597;49.628;10.850;2023-07-13T01:51:20;29.00;52.30
44863;DHT22;30597;49.628;10.850;2023-07-13T01:53:46;29.10;52.30
44863;DHT22;30597;49.628;10.850;2023-07-13T01:56:11;29.20;52.20
44863;DHT22;30597;49.628;10.850;2023-07-13T01:58:37;29.00;52.00
44863;DHT22;30597;49.628;10.850;2023-07-13T02:01:03;29.10;51.90
44863;DHT22;30597;49.628;10.850;2023-07-13T02:03:28;29.00;51.90
44863;DHT22;30597;49.628;10.850;2023-07-13T02:05:54;29.00;51.80
44863;DHT22;30597;49.628;10.850;2023-07-13T02:08:19;29.00;51.70
44863;DHT22;30597;49.628;10.850;2023-07-13T02:10:45;28.90;51.70
44863;DHT22;30597;49.628;10.850;2023-07-13T02:13:10;29.00;51.70
44863;DHT22;30597;49.628;10.850;2023-07-13T02:15:39;29.00;51.60
44863;DHT22;30597;49.628;10.850;2023-07-13T02:18:08;29.00;51.60
44863;DHT22;30597;49.628;10.850;2023-07-13T02:20:34;28.90;51.50
44863;DHT22;30597;49.628;10.850;2023-07-13T02:22:59;28.90;51.40
44863;DHT22;30597;49.628;10.850;2023-07-13T02:25:25;28.90;51.20
44863;DHT22;30597;49.628;10.850;2023-07-13T02:27:52;28.90;51.20
44863;DHT22;30597;49.628;10.850;2023-07-13T02:30:17;28.90;51.00
44863;DHT22;30597;49.628;10.850;2023-07-13T02:32:43;28.90;50.80
44863;DHT22;30597;49.628;10.850;2023-07-13T02:35:09;28.90;50.80
44863;DHT22;30597;49.628;10.850;2023-07-13T02:37:35;28.90;50.90
44863;DHT22;30597;49.628;10.850;2023-07-13T02:40:01;28.90;50.80
44863;DHT22;30597;49.628;10.850;2023-07-13T02:42:30;28.80;50.60
44863;DHT22;30597;49.628;10.850;2023-07-13T02:44:56;28.80;50.40
44863;DHT22;30597;49.628;10.850;2023-07-13T02:47:21;28.80;50.40
44863;DHT22;30597;49.628;10.850;2023-07-13T02:49:47;28.70;50.40
44863;DHT22;30597;49.628;10.850;2023-07-13T02:52:13;28.70;50.30
44863;DHT22;30597;49.628;10.850;2023-07-13T02:54:38;28.70;50.50
44863;DHT22;30597;49.628;10.850;2023-07-13T02:57:04;28.70;50.30
44863;DHT22;30597;49.628;10.850;2023-07-13T02:59:29;28.70;50.40
44863;DHT22;30597;49.628;10.850;2023-07-13T03:01:55;28.80;50.30
44863;DHT22;30597;49.628;10.850;2023-07-13T03:04:21;28.70;50.20
44863;DHT22;30597;49.628;10.850;2023-07-13T03:06:46;28.60;50.20
44863;DHT22;30597;49.628;10.850;2023-07-13T03:09:12;28.70;50.30
44863;DHT22;30597;49.628;10.850;2023-07-13T03:11:38;28.60;50.20
44863;DHT22;30597;49.628;10.850;2023-07-13T03:14:04;28.70;50.20
44863;DHT22;30597;49.628;10.850;2023-07-13T03:16:29;28.60;50.20
44863;DHT22;30597;49.628;10.850;2023-07-13T03:18:55;28.60;50.10
44863;DHT22;30597;49.628;10.850;2023-07-13T03:21:21;28.60;50.10
44863;DHT22;30597;49.628;10.850;2023-07-13T03:23:46;28.60;50.00
44863;DHT22;30597;49.628;10.850;2023-07-13T03:26:16;28.60;50.00
44863;DHT22;30597;49.628;10.850;2023-07-13T03:28:43;28.60;50.00
44863;DHT22;30597;49.628;10.850;2023-07-13T03:31:14;28.60;50.00
44863;DHT22;30597;49.628;10.850;2023-07-13T03:33:40;28.60;50.00
44863;DHT22;30597;49.628;10.850;2023-07-13T03:36:07;28.50;49.80
44863;DHT22;30597;49.628;10.850;2023-07-13T03:38:34;28.50;49.80
44863;DHT22;30597;49.628;10.850;2023-07-13T03:40:59;28.50;49.60
44863;DHT22;30597;49.628;10.850;2023-07-13T03:43:25;28.50;49.80
44863;DHT22;30597;49.628;10.850;2023-07-13T03:45:51;28.50;49.80
44863;DHT22;30597;49.628;10.850;2023-07-13T03:48:16;28.50;49.80
44863;DHT22;30597;49.628;10.850;2023-07-13T03:50:42;28.50;49.80
44863;DHT22;30597;49.628;10.850;2023-07-13T03:53:07;28.50;49.80
44863;DHT22;30597;49.628;10.850;2023-07-13T03:55:33;28.50;49.70
44863;DHT22;30597;49.628;10.850;2023-07-13T03:58:26;28.50;49.80
44863;DHT22;30597;49.628;10.850;2023-07-13T04:00:53;28.50;49.90
44863;DHT22;30597;49.628;10.850;2023-07-13T04:03:18;28.60;50.10
44863;DHT22;30597;49.628;10.850;2023-07-13T04:05:44;28.50;49.90
44863;DHT22;30597;49.628;10.850;2023-07-13T04:08:09;28.60;49.90
44863;DHT22;30597;49.628;10.850;2023-07-13T04:10:35;28.50;49.80
44863;DHT22;30597;49.628;10.850;2023-07-13T04:13:01;28.50;49.80
44863;DHT22;30597;49.628;10.850;2023-07-13T04:15:29;28.50;49.80
44863;DHT22;30597;49.628;10.850;2023-07-13T04:17:55;28.40;49.70
44863;DHT22;30597;49.628;10.850;2023-07-13T04:20:21;28.50;49.60
44863;DHT22;30597;49.628;10.850;2023-07-13T04:22:47;28.50;49.50
44863;DHT22;30597;49.628;10.850;2023-07-13T04:25:12;28.50;49.50
44863;DHT22;30597;49.628;10.850;2023-07-13T04:27:38;28.40;49.50
44863;DHT22;30597;49.628;10.850;2023-07-13T04:30:05;28.40;49.50
44863;DHT22;30597;49.628;10.850;2023-07-13T04:32:31;28.40;49.40
44863;DHT22;30597;49.628;10.850;2023-07-13T04:34:57;28.40;49.30
44863;DHT22;30597;49.628;10.850;2023-07-13T04:37:25;28.30;49.30
44863;DHT22;30597;49.628;10.850;2023-07-13T04:39:51;28.30;49.20
44863;DHT22;30597;49.628;10.850;2023-07-13T04:42:17;28.40;49.10
44863;DHT22;30597;49.628;10.850;2023-07-13T04:44:49;28.40;49.00
44863;DHT22;30597;49.628;10.850;2023-07-13T04:47:15;28.40;49.00
44863;DHT22;30597;49.628;10.850;2023-07-13T04:49:41;28.30;48.90
44863;DHT22;30597;49.628;10.850;2023-07-13T04:52:07;28.30;49.00
44863;DHT22;30597;49.628;10.850;2023-07-13T04:54:33;28.30;48.80
44863;DHT22;30597;49.628;10.850;2023-07-13T04:56:59;28.30;48.80
44863;DHT22;30597;49.628;10.850;2023-07-13T04:59:25;28.30;48.60
44863;DHT22;30597;49.628;10.850;2023-07-13T05:01:50;28.20;48.60
44863;DHT22;30597;49.628;10.850;2023-07-13T05:04:16;28.30;48.70
44863;DHT22;30597;49.628;10.850;2023-07-13T05:06:42;28.30;48.60
44863;DHT22;30597;49.628;10.850;2023-07-13T05:09:07;28.30;48.50
44863;DHT22;30597;49.628;10.850;2023-07-13T05:11:33;28.20;48.30
44863;DHT22;30597;49.628;10.850;2023-07-13T05:13:59;28.20;49.00
44863;DHT22;30597;49.628;10.850;2023-07-13T05:16:27;28.30;48.40
44863;DHT22;30597;49.628;10.850;2023-07-13T05:18:53;28.20;48.20
44863;DHT22;30597;49.628;10.850;2023-07-13T05:21:19;28.20;48.20
44863;DHT22;30597;49.628;10.850;2023-07-13T05:23:44;28.20;48.20
44863;DHT22;30597;49.628;10.850;2023-07-13T05:26:10;28.20;48.30
44863;DHT22;30597;49.628;10.850;2023-07-13T05:28:36;28.20;48.10
44863;DHT22;30597;49.628;10.850;2023-07-13T05:31:02;28.20;47.90
44863;DHT22;30597;49.628;10.850;2023-07-13T05:33:27;28.20;47.90
44863;DHT22;30597;49.628;10.850;2023-07-13T05:35:53;28.20;48.00
44863;DHT22;30597;49.628;10.850;2023-07-13T05:38:19;28.20;48.00
44863;DHT22;30597;49.628;10.850;2023-07-13T05:40:46;28.20;47.90
44863;DHT22;30597;49.628;10.850;2023-07-13T05:43:12;28.20;48.00
44863;DHT22;30597;49.628;10.850;2023-07-13T05:45:38;28.20;47.90
44863;DHT22;30597;49.628;10.850;2023-07-13T05:48:03;28.30;48.00
44863;DHT22;30597;49.628;10.850;2023-07-13T05:50:29;28.20;47.90
44863;DHT22;30597;49.628;10.850;2023-07-13T05:52:54;28.20;47.90
44863;DHT22;30597;49.628;10.850;2023-07-13T05:55:22;28.20;47.90
44863;DHT22;30597;49.628;10.850;2023-07-13T05:57:47;28.20;47.80
44863;DHT22;30597;49.628;10.850;2023-07-13T06:00:13;28.20;47.80
44863;DHT22;30597;49.628;10.850;2023-07-13T06:02:39;28.20;47.70
44863;DHT22;30597;49.628;10.850;2023-07-13T06:05:05;28.20;47.80
44863;DHT22;30597;49.628;10.850;2023-07-13T06:07:30;28.20;47.70
44863;DHT22;30597;49.628;10.850;2023-07-13T06:09:56;28.20;47.70
44863;DHT22;30597;49.628;10.850;2023-07-13T06:12:22;28.20;47.70
44863;DHT22;30597;49.628;10.850;2023-07-13T06:14:47;28.20;47.70
44863;DHT22;30597;49.628;10.850;2023-07-13T06:17:13;28.20;47.60
44863;DHT22;30597;49.628;10.850;2023-07-13T06:19:39;28.20;47.70
44863;DHT22;30597;49.628;10.850;2023-07-13T06:22:04;28.30;47.60
44863;DHT22;30597;49.628;10.850;2023-07-13T06:24:30;28.20;47.40
44863;DHT22;30597;49.628;10.850;2023-07-13T06:26:56;28.30;47.40
44863;DHT22;30597;49.628;10.850;2023-07-13T06:29:22;28.20;46.90
44863;DHT22;30597;49.628;10.850;2023-07-13T06:31:47;28.20;47.10
44863;DHT22;30597;49.628;10.850;2023-07-13T06:34:13;28.30;47.20
44863;DHT22;30597;49.628;10.850;2023-07-13T06:36:38;28.30;47.20
44863;DHT22;30597;49.628;10.850;2023-07-13T06:39:05;28.30;47.30
44863;DHT22;30597;49.628;10.850;2023-07-13T06:41:31;28.30;47.40
44863;DHT22;30597;49.628;10.850;2023-07-13T06:43:57;28.40;47.30
44863;DHT22;30597;49.628;10.850;2023-07-13T06:46:23;28.40;47.30
44863;DHT22;30597;49.628;10.850;2023-07-13T06:48:49;28.40;47.80
44863;DHT22;30597;49.628;10.850;2023-07-13T06:51:15;28.50;47.20
44863;DHT22;30597;49.628;10.850;2023-07-13T06:53:40;28.50;47.20
44863;DHT22;30597;49.628;10.850;2023-07-13T06:56:07;28.50;47.20
44863;DHT22;30597;49.628;10.850;2023-07-13T06:58:34;28.50;47.00
44863;DHT22;30597;49.628;10.850;2023-07-13T07:00:59;28.50;47.00
44863;DHT22;30597;49.628;10.850;2023-07-13T07:03:25;28.60;47.00
44863;DHT22;30597;49.628;10.850;2023-07-13T07:05:51;28.60;46.80
44863;DHT22;30597;49.628;10.850;2023-07-13T07:08:16;28.50;46.70
44863;DHT22;30597;49.628;10.850;2023-07-13T07:10:42;28.50;46.60
44863;DHT22;30597;49.628;10.850;2023-07-13T07:13:07;28.50;46.50
44863;DHT22;30597;49.628;10.850;2023-07-13T07:15:34;28.50;46.50
44863;DHT22;30597;49.628;10.850;2023-07-13T07:18:00;28.50;46.30
44863;DHT22;30597;49.628;10.850;2023-07-13T07:20:26;28.40;46.20
44863;DHT22;30597;49.628;10.850;2023-07-13T07:22:52;28.40;46.20
44863;DHT22;30597;49.628;10.850;2023-07-13T07:25:18;28.40;46.00
44863;DHT22;30597;49.628;10.850;2023-07-13T07:27:44;28.40;46.00
44863;DHT22;30597;49.628;10.850;2023-07-13T07:30:12;28.40;45.90
44863;DHT22;30597;49.628;10.850;2023-07-13T07:32:37;28.40;45.80
44863;DHT22;30597;49.628;10.850;2023-07-13T07:35:03;28.50;45.70
44863;DHT22;30597;49.628;10.850;2023-07-13T07:37:29;28.40;45.20
44863;DHT22;30597;49.628;10.850;2023-07-13T07:39:54;28.50;45.30
44863;DHT22;30597;49.628;10.850;2023-07-13T07:42:20;28.50;45.10
44863;DHT22;30597;49.628;10.850;2023-07-13T07:44:46;28.50;45.10
44863;DHT22;30597;49.628;10.850;2023-07-13T07:47:11;28.40;45.10
44863;DHT22;30597;49.628;10.850;2023-07-13T07:49:37;28.50;45.10
44863;DHT22;30597;49.628;10.850;2023-07-13T07:52:04;28.40;45.00
44863;DHT22;30597;49.628;10.850;2023-07-13T07:54:29;28.40;44.90
44863;DHT22;30597;49.628;10.850;2023-07-13T07:56:55;28.40;45.00
44863;DHT22;30597;49.628;10.850;2023-07-13T07:59:20;28.40;44.90
44863;DHT22;30597;49.628;10.850;2023-07-13T08:01:46;28.40;44.80
44863;DHT22;30597;49.628;10.850;2023-07-13T08:04:13;28.40;44.80
44863;DHT22;30597;49.628;10.850;2023-07-13T08:06:39;28.30;44.60
44863;DHT22;30597;49.628;10.850;2023-07-13T08:09:04;28.30;44.60
44863;DHT22;30597;49.628;10.850;2023-07-13T08:11:30;28.30;44.40
44863;DHT22;30597;49.628;10.850;2023-07-13T08:13:56;28.30;44.30
44863;DHT22;30597;49.628;10.850;2023-07-13T08:16:22;28.30;44.30
44863;DHT22;30597;49.628;10.850;2023-07-13T08:18:48;28.30;44.30
44863;DHT22;30597;49.628;10.850;2023-07-13T08:21:13;28.30;44.30
44863;DHT22;30597;49.628;10.850;2023-07-13T08:23:39;28.30;44.10
44863;DHT22;30597;49.628;10.850;2023-07-13T08:26:05;28.40;44.10
44863;DHT22;30597;49.628;10.850;2023-07-13T08:28:31;28.30;44.00
44863;DHT22;30597;49.628;10.850;2023-07-13T08:31:03;28.30;43.90
44863;DHT22;30597;49.628;10.850;2023-07-13T08:33:28;28.40;43.90
44863;DHT22;30597;49.628;10.850;2023-07-13T08:35:54;28.40;43.80
44863;DHT22;30597;49.628;10.850;2023-07-13T08:38:19;28.30;43.70
44863;DHT22;30597;49.628;10.850;2023-07-13T08:40:51;28.30;43.50
44863;DHT22;30597;49.628;10.850;2023-07-13T08:43:20;28.40;43.70
44863;DHT22;30597;49.628;10.850;2023-07-13T08:45:51;28.30;43.50
44863;DHT22;30597;49.628;10.850;2023-07-13T08:48:22;28.40;43.40
44863;DHT22;30597;49.628;10.850;2023-07-13T08:50:58;28.40;43.20
44863;DHT22;30597;49.628;10.850;2023-07-13T08:53:32;28.40;43.10
44863;DHT22;30597;49.628;10.850;2023-07-13T08:55:59;28.30;42.80
44863;DHT22;30597;49.628;10.850;2023-07-13T08:58:25;28.40;42.70
44863;DHT22;30597;49.628;10.850;2023-07-13T09:01:15;28.50;42.60
44863;DHT22;30597;49.628;10.850;2023-07-13T09:03:59;28.40;42.40
44863;DHT22;30597;49.628;10.850;2023-07-13T09:06:34;28.30;42.30
44863;DHT22;30597;49.628;10.850;2023-07-13T09:11:58;28.30;42.30
44863;DHT22;30597;49.628;10.850;2023-07-13T09:14:53;28.30;42.30
44863;DHT22;30597;49.628;10.850;2023-07-13T09:17:34;28.30;42.30
44863;DHT22;30597;49.628;10.850;2023-07-13T09:20:08;28.30;42.20
44863;DHT22;30597;49.628;10.850;2023-07-13T09:22:36;28.30;42.10
44863;DHT22;30597;49.628;10.850;2023-07-13T09:25:13;28.30;42.00
44863;DHT22;30597;49.628;10.850;2023-07-13T09:27:45;28.30;42.00
44863;DHT22;30597;49.628;10.850;2023-07-13T09:32:41;28.30;41.80
44863;DHT22;30597;49.628;10.850;2023-07-13T09:35:19;28.40;41.30
44863;DHT22;30597;49.628;10.850;2023-07-13T09:37:46;28.40;41.20
44863;DHT22;30597;49.628;10.850;2023-07-13T09:40:20;28.40;41.20
44863;DHT22;30597;49.628;10.850;2023-07-13T09:42:48;28.30;41.10
44863;DHT22;30597;49.628;10.850;2023-07-13T09:45:26;28.40;41.10
44863;DHT22;30597;49.628;10.850;2023-07-13T09:48:05;28.30;40.90
44863;DHT22;30597;49.628;10.850;2023-07-13T09:50:32;28.40;41.00
44863;DHT22;30597;49.628;10.850;2023-07-13T09:52:57;28.50;41.50
44863;DHT22;30597;49.628;10.850;2023-07-13T09:57:52;28.40;40.40
44863;DHT22;30597;49.628;10.850;2023-07-13T10:00:37;28.40;40.40
44863;DHT22;30597;49.628;10.850;2023-07-13T10:03:05;28.40;40.50
44863;DHT22;30597;49.628;10.850;2023-07-13T10:05:43;28.50;40.70
44863;DHT22;30597;49.628;10.850;2023-07-13T10:08:25;28.40;40.50
44863;DHT22;30597;49.628;10.850;2023-07-13T10:11:23;28.40;40.50
44863;DHT22;30597;49.628;10.850;2023-07-13T10:13:52;28.40;40.30
44863;DHT22;30597;49.628;10.850;2023-07-13T10:16:19;28.50;40.30
44863;DHT22;30597;49.628;10.850;2023-07-13T10:18:59;28.40;40.10
44863;DHT22;30597;49.628;10.850;2023-07-13T10:21:39;28.40;40.20
44863;DHT22;30597;49.628;10.850;2023-07-13T10:24:19;28.40;40.20
44863;DHT22;30597;49.628;10.850;2023-07-13T10:29:24;28.40;39.90
44863;DHT22;30597;49.628;10.850;2023-07-13T10:31:51;28.40;39.90
44863;DHT22;30597;49.628;10.850;2023-07-13T10:34:16;28.40;39.90
44863;DHT22;30597;49.628;10.850;2023-07-13T10:36:44;28.50;38.30
44863;DHT22;30597;49.628;10.850;2023-07-13T10:39:17;28.50;36.30
44863;DHT22;30597;49.628;10.850;2023-07-13T10:41:44;28.50;35.90
44863;DHT22;30597;49.628;10.850;2023-07-13T10:44:28;28.50;36.00
44863;DHT22;30597;49.628;10.850;2023-07-13T10:47:02;28.40;36.50
44863;DHT22;30597;49.628;10.850;2023-07-13T10:49:31;28.40;36.90
44863;DHT22;30597;49.628;10.850;2023-07-13T10:51:57;28.40;37.10
44863;DHT22;30597;49.628;10.850;2023-07-13T10:54:33;28.50;37.30
44863;DHT22;30597;49.628;10.850;2023-07-13T10:57:20;28.50;37.70
44863;DHT22;30597;49.628;10.850;2023-07-13T10:59:48;28.40;37.80
44863;DHT22;30597;49.628;10.850;2023-07-13T11:02:25;28.40;38.00
44863;DHT22;30597;49.628;10.850;2023-07-13T11:04:53;28.40;38.20
44863;DHT22;30597;49.628;10.850;2023-07-13T11:07:27;28.40;38.30
44863;DHT22;30597;49.628;10.850;2023-07-13T11:09:55;28.40;38.50
44863;DHT22;30597;49.628;10.850;2023-07-13T11:17:51;28.40;38.60
44863;DHT22;30597;49.628;10.850;2023-07-13T11:20:32;28.40;39.00
44863;DHT22;30597;49.628;10.850;2023-07-13T11:25:39;28.40;39.00
44863;DHT22;30597;49.628;10.850;2023-07-13T11:36:13;28.40;39.40
44863;DHT22;30597;49.628;10.850;2023-07-13T11:38:44;28.40;39.30
44863;DHT22;30597;49.628;10.850;2023-07-13T11:41:17;28.40;39.30
44863;DHT22;30597;49.628;10.850;2023-07-13T11:43:49;28.40;39.40
44863;DHT22;30597;49.628;10.850;2023-07-13T11:46:26;28.40;39.40
44863;DHT22;30597;49.628;10.850;2023-07-13T11:48:52;28.50;39.40
44863;DHT22;30597;49.628;10.850;2023-07-13T11:51:25;28.50;39.50
44863;DHT22;30597;49.628;10.850;2023-07-13T11:53:54;28.50;39.50
44863;DHT22;30597;49.628;10.850;2023-07-13T11:56:20;28.50;39.40
44863;DHT22;30597;49.628;10.850;2023-07-13T11:58:50;28.50;39.30
44863;DHT22;30597;49.628;10.850;2023-07-13T12:01:20;28.50;39.50
44863;DHT22;30597;49.628;10.850;2023-07-13T12:03:46;28.50;39.50
44863;DHT22;30597;49.628;10.850;2023-07-13T12:06:29;28.50;39.50
44863;DHT22;30597;49.628;10.850;2023-07-13T12:09:03;28.50;39.70
44863;DHT22;30597;49.628;10.850;2023-07-13T12:11:30;28.40;39.60
44863;DHT22;30597;49.628;10.850;2023-07-13T12:13:56;28.40;39.60
44863;DHT22;30597;49.628;10.850;2023-07-13T12:16:32;28.50;39.70
44863;DHT22;30597;49.628;10.850;2023-07-13T12:19:00;28.50;39.70
44863;DHT22;30597;49.628;10.850;2023-07-13T12:21:36;28.50;39.80
44863;DHT22;30597;49.628;10.850;2023-07-13T12:24:02;28.50;39.80
44863;DHT22;30597;49.628;10.850;2023-07-13T12:26:29;28.50;39.70
44863;DHT22;30597;49.628;10.850;2023-07-13T12:28:57;28.50;39.70
44863;DHT22;30597;49.628;10.850;2023-07-13T12:34:30;28.50;39.80
44863;DHT22;30597;49.628;10.850;2023-07-13T12:36:56;28.50;39.80
44863;DHT22;30597;49.628;10.850;2023-07-13T12:39:46;28.50;39.80
44863;DHT22;30597;49.628;10.850;2023-07-13T12:42:27;28.40;39.80
44863;DHT22;30597;49.628;10.850;2023-07-13T12:44:57;28.50;39.90
44863;DHT22;30597;49.628;10.850;2023-07-13T12:47:24;28.60;40.00
44863;DHT22;30597;49.628;10.850;2023-07-13T12:49:55;28.50;39.80
44863;DHT22;30597;49.628;10.850;2023-07-13T12:52:24;28.50;39.90
44863;DHT22;30597;49.628;10.850;2023-07-13T12:55:06;28.50;39.60
44863;DHT22;30597;49.628;10.850;2023-07-13T12:57:49;28.40;39.60
44863;DHT22;30597;49.628;10.850;2023-07-13T13:02:55;28.40;39.90
44863;DHT22;30597;49.628;10.850;2023-07-13T13:05:22;28.40;40.00
44863;DHT22;30597;49.628;10.850;2023-07-13T13:07:51;28.50;40.00
44863;DHT22;30597;49.628;10.850;2023-07-13T13:10:16;28.50;40.00
44863;DHT22;30597;49.628;10.850;2023-07-13T13:12:42;28.50;40.00
44863;DHT22;30597;49.628;10.850;2023-07-13T13:15:08;28.50;40.10
44863;DHT22;30597;49.628;10.850;2023-07-13T13:17:34;28.50;40.10
44863;DHT22;30597;49.628;10.850;2023-07-13T13:20:00;28.50;40.00
44863;DHT22;30597;49.628;10.850;2023-07-13T13:22:25;28.60;40.30
44863;DHT22;30597;49.628;10.850;2023-07-13T13:24:51;28.60;40.10
44863;DHT22;30597;49.628;10.850;2023-07-13T13:27:18;28.50;40.20
44863;DHT22;30597;49.628;10.850;2023-07-13T13:29:45;28.50;40.20
44863;DHT22;30597;49.628;10.850;2023-07-13T13:32:13;28.50;40.30
44863;DHT22;30597;49.628;10.850;2023-07-13T13:34:38;28.50;40.30
44863;DHT22;30597;49.628;10.850;2023-07-13T13:37:22;28.50;40.50
44863;DHT22;30597;49.628;10.850;2023-07-13T13:39:48;28.50;40.60
44863;DHT22;30597;49.628;10.850;2023-07-13T13:42:15;28.50;41.20
44863;DHT22;30597;49.628;10.850;2023-07-13T13:44:40;28.50;41.40
44863;DHT22;30597;49.628;10.850;2023-07-13T13:47:32;28.50;41.80
44863;DHT22;30597;49.628;10.850;2023-07-13T13:49:58;28.50;42.00
44863;DHT22;30597;49.628;10.850;2023-07-13T13:52:25;28.60;41.70
44863;DHT22;30597;49.628;10.850;2023-07-13T13:54:51;28.50;41.40
44863;DHT22;30597;49.628;10.850;2023-07-13T13:57:22;28.50;41.50
44863;DHT22;30597;49.628;10.850;2023-07-13T13:59:48;28.50;41.80
44863;DHT22;30597;49.628;10.850;2023-07-13T14:02:28;28.60;42.00
44863;DHT22;30597;49.628;10.850;2023-07-13T14:05:03;28.60;42.10
44863;DHT22;30597;49.628;10.850;2023-07-13T14:07:29;28.60;42.10
44863;DHT22;30597;49.628;10.850;2023-07-13T14:09:58;28.60;42.20
44863;DHT22;30597;49.628;10.850;2023-07-13T14:12:27;28.70;42.50
44863;DHT22;30597;49.628;10.850;2023-07-13T14:14:55;28.60;42.20
44863;DHT22;30597;49.628;10.850;2023-07-13T14:17:25;28.60;42.10
44863;DHT22;30597;49.628;10.850;2023-07-13T14:19:52;28.60;42.10
44863;DHT22;30597;49.628;10.850;2023-07-13T14:22:23;28.60;42.10
44863;DHT22;30597;49.628;10.850;2023-07-13T14:24:51;28.60;41.90
44863;DHT22;30597;49.628;10.850;2023-07-13T14:27:17;28.70;42.10
44863;DHT22;30597;49.628;10.850;2023-07-13T14:29:42;28.70;41.80
44863;DHT22;30597;49.628;10.850;2023-07-13T14:32:12;28.60;41.50
44863;DHT22;30597;49.628;10.850;2023-07-13T14:34:38;28.60;41.50
44863;DHT22;30597;49.628;10.850;2023-07-13T14:37:04;28.60;41.20
44863;DHT22;30597;49.628;10.850;2023-07-13T14:39:31;28.60;40.60
44863;DHT22;30597;49.628;10.850;2023-07-13T14:41:57;28.60;40.60
44863;DHT22;30597;49.628;10.850;2023-07-13T14:44:28;28.60;40.60
44863;DHT22;30597;49.628;10.850;2023-07-13T14:46:55;28.60;40.80
44863;DHT22;30597;49.628;10.850;2023-07-13T14:49:38;28.70;40.70
44863;DHT22;30597;49.628;10.850;2023-07-13T14:52:16;28.60;40.80
44863;DHT22;30597;49.628;10.850;2023-07-13T14:54:42;28.60;41.50
44863;DHT22;30597;49.628;10.850;2023-07-13T14:57:10;28.60;40.70
44863;DHT22;30597;49.628;10.850;2023-07-13T14:59:38;28.60;40.60
44863;DHT22;30597;49.628;10.850;2023-07-13T15:02:14;28.60;40.60
44863;DHT22;30597;49.628;10.850;2023-07-13T15:04:41;28.60;40.70
44863;DHT22;30597;49.628;10.850;2023-07-13T15:07:10;28.50;40.50
44863;DHT22;30597;49.628;10.850;2023-07-13T15:09:36;28.60;40.60
44863;DHT22;30597;49.628;10.850;2023-07-13T15:12:01;28.60;40.90
44863;DHT22;30597;49.628;10.850;2023-07-13T15:14:27;28.60;40.70
44863;DHT22;30597;49.628;10.850;2023-07-13T15:16:55;28.60;40.60
44863;DHT22;30597;49.628;10.850;2023-07-13T15:19:21;28.60;40.70
44863;DHT22;30597;49.628;10.850;2023-07-13T15:21:49;28.60;40.70
44863;DHT22;30597;49.628;10.850;2023-07-13T15:24:15;28.60;40.70
44863;DHT22;30597;49.628;10.850;2023-07-13T15:26:41;28.60;40.60
44863;DHT22;30597;49.628;10.850;2023-07-13T15:29:11;28.60;40.70
44863;DHT22;30597;49.628;10.850;2023-07-13T15:31:36;28.60;40.70
44863;DHT22;30597;49.628;10.850;2023-07-13T15:34:16;28.60;40.60
44863;DHT22;30597;49.628;10.850;2023-07-13T15:36:44;28.60;40.70
44863;DHT22;30597;49.628;10.850;2023-07-13T15:39:14;28.60;40.60
44863;DHT22;30597;49.628;10.850;2023-07-13T15:41:41;28.60;40.70
44863;DHT22;30597;49.628;10.850;2023-07-13T15:44:27;28.70;40.80
44863;DHT22;30597;49.628;10.850;2023-07-13T15:46:54;28.60;40.70
44863;DHT22;30597;49.628;10.850;2023-07-13T15:49:20;28.60;40.80
44863;DHT22;30597;49.628;10.850;2023-07-13T15:51:46;28.60;40.90
44863;DHT22;30597;49.628;10.850;2023-07-13T15:54:15;28.60;40.90